Terminal Aerodrome Forecast
Issued by NWS

Home | Current Version | Previous Version | Text Only | Print | Product List | Glossary On
Versions: 1 2 3 4 5 6 7 8 9 10 11 12 13
000
FTUS41 KBTV 070534
TAFRUT
TAF
KRUT 070534Z 0706/0806 13007KT P6SM SCT100
     FM071500 16009KT P6SM VCSH BKN035
     FM071800 17010G18KT P6SM VCSH BKN035
     FM072200 17007KT P6SM BKN050
     FM080500 15004KT P6SM -SHRA BKN090
      AMD LTD TO CLD VIS AND WIND=

USA.gov is the U.S. government's official web portal to all federal, state and local government web resources and services.